Time;durP1;ratioP1;P1;durP2;ratioP2;P2;SDS_P1;SDS_P2;PMS_P1;PMS_P2;Temp;Humidity;BMP_temperature;BMP_pressure;BME280_temperature;BME280_humidity;BME280_pressure;Samples;Min_cycle;Max_cycle;Signal;HPM_P1;HPM_P2
2021/05/08 00:00:33;;;;;;;30.95;16.52;;;;;;;3.12;77.34;101718.53;5100158;28;20454;-67
2021/05/08 00:02:58;;;;;;;32.20;16.38;;;;;;;3.10;76.79;101714.03;5098235;28;20088;-67
2021/05/08 00:05:24;;;;;;;30.33;16.42;;;;;;;3.07;77.20;101714.81;5097757;28;20020;-67
2021/05/08 00:07:49;;;;;;;29.77;15.88;;;;;;;3.14;77.34;101716.88;5099415;28;20024;-66
2021/05/08 00:10:16;;;;;;;30.85;16.23;;;;;;;3.11;77.25;101716.72;5097336;28;20024;-67
2021/05/08 00:12:42;;;;;;;29.42;16.75;;;;;;;3.00;77.26;101717.94;5099343;28;20039;-67
2021/05/08 00:15:10;;;;;;;30.88;16.75;;;;;;;2.95;77.91;101714.19;5099384;28;20023;-66
2021/05/08 00:17:36;;;;;;;29.35;16.50;;;;;;;2.93;78.23;101702.78;5099703;28;20055;-67
2021/05/08 00:20:03;;;;;;;29.52;16.00;;;;;;;2.99;77.64;101710.91;5097953;28;20479;-66
2021/05/08 00:22:28;;;;;;;30.88;16.65;;;;;;;3.07;78.09;101714.81;5096338;28;20421;-66
2021/05/08 00:24:54;;;;;;;31.73;16.73;;;;;;;3.07;78.59;101709.59;5099719;28;20027;-67
2021/05/08 00:27:19;;;;;;;31.65;17.13;;;;;;;3.13;78.29;101709.88;5099562;28;20107;-67
2021/05/08 00:29:44;;;;;;;30.27;16.08;;;;;;;3.14;78.57;101698.56;5098937;28;20390;-67
2021/05/08 00:32:10;;;;;;;31.95;17.90;;;;;;;3.11;78.04;101687.97;5101025;28;20032;-66
2021/05/08 00:34:35;;;;;;;33.65;17.17;;;;;;;3.09;78.01;101686.13;5104137;28;20054;-66
2021/05/08 00:37:00;;;;;;;31.08;17.08;;;;;;;3.10;78.75;101683.59;5100347;28;20024;-67
2021/05/08 00:39:26;;;;;;;31.83;18.00;;;;;;;2.99;79.14;101684.78;5102551;27;20080;-67
2021/05/08 00:41:51;;;;;;;32.10;17.95;;;;;;;2.85;80.51;101686.72;5103579;28;20122;-67
2021/05/08 00:44:16;;;;;;;30.88;17.73;;;;;;;2.91;81.02;101689.66;5103643;28;20140;-67
2021/05/08 00:46:42;;;;;;;31.88;17.48;;;;;;;2.93;80.62;101685.38;5103728;28;20037;-67
2021/05/08 00:49:07;;;;;;;32.25;17.70;;;;;;;3.03;80.74;101684.13;5101030;28;20024;-66
2021/05/08 00:51:33;;;;;;;31.13;17.77;;;;;;;3.16;80.78;101682.09;5103155;28;20028;-67
2021/05/08 00:53:58;;;;;;;30.83;17.38;;;;;;;3.30;80.73;101678.41;5101614;28;20024;-66
2021/05/08 00:56:24;;;;;;;31.60;17.70;;;;;;;3.37;79.93;101666.53;5098937;28;20034;-67
2021/05/08 00:58:50;;;;;;;31.70;18.05;;;;;;;3.43;80.53;101675.53;5104872;28;20031;-66
2021/05/08 01:01:15;;;;;;;33.55;17.60;;;;;;;3.55;80.07;101666.50;5098422;28;20020;-66
2021/05/08 01:03:44;;;;;;;31.60;18.55;;;;;;;3.56;80.10;101661.34;5103460;28;20032;-66
2021/05/08 01:06:10;;;;;;;32.33;18.30;;;;;;;3.62;79.36;101668.56;5094682;28;20028;-66
2021/05/08 01:08:36;;;;;;;31.20;17.85;;;;;;;3.58;79.89;101667.53;5097599;28;20032;-67
2021/05/08 01:11:02;;;;;;;31.83;17.27;;;;;;;3.68;79.25;101668.84;5100914;28;20028;-66
2021/05/08 01:13:28;;;;;;;31.70;17.63;;;;;;;3.70;80.68;101666.28;5095770;28;20039;-67
2021/05/08 01:15:54;;;;;;;30.85;17.60;;;;;;;3.73;79.96;101664.72;5099263;28;20020;-66
2021/05/08 01:18:19;;;;;;;31.30;17.73;;;;;;;3.72;80.27;101665.53;5098747;28;20028;-66
2021/05/08 01:20:45;;;;;;;31.45;17.25;;;;;;;3.75;80.41;101667.41;5098675;28;20028;-66
2021/05/08 01:23:10;;;;;;;31.27;18.23;;;;;;;3.71;80.82;101663.75;5100131;28;20115;-66
2021/05/08 01:25:36;;;;;;;31.60;17.77;;;;;;;3.69;80.88;101660.19;5096871;28;20031;-67
2021/05/08 01:28:02;;;;;;;30.98;18.00;;;;;;;3.65;81.07;101658.25;5096986;28;20056;-66
2021/05/08 01:30:34;;;;;;;30.08;17.55;;;;;;;3.63;81.07;101658.16;5098201;28;20111;-67
2021/05/08 01:33:00;;;;;;;30.30;16.95;;;;;;;3.71;80.46;101657.63;5099635;28;20039;-67
2021/05/08 01:35:27;;;;;;;30.13;17.25;;;;;;;3.72;80.95;101649.84;5101179;28;20035;-67
2021/05/08 01:37:53;;;;;;;32.15;17.10;;;;;;;3.71;80.43;101648.03;5101224;28;20024;-66
2021/05/08 01:40:29;;;;;;;30.83;16.90;;;;;;;3.69;80.39;101644.47;5100468;28;20030;-66
2021/05/08 01:42:54;;;;;;;30.73;17.20;;;;;;;3.69;81.37;101644.47;5101976;28;20115;-67
2021/05/08 01:45:22;;;;;;;30.65;16.73;;;;;;;3.64;81.47;101640.75;5099346;28;20656;-67
2021/05/08 01:47:47;;;;;;;31.40;16.77;;;;;;;3.62;80.69;101638.06;5102038;28;20358;-67
2021/05/08 01:50:18;;;;;;;30.15;17.23;;;;;;;3.53;81.34;101642.00;5104609;28;20031;-66
2021/05/08 01:52:44;;;;;;;30.77;16.75;;;;;;;3.52;81.45;101637.59;5100814;28;20074;-66
2021/05/08 01:55:14;;;;;;;29.95;16.70;;;;;;;3.48;81.03;101632.22;5100797;28;20114;-67
2021/05/08 01:57:42;;;;;;;30.13;15.90;;;;;;;3.46;80.04;101630.34;5097181;28;20043;-67
2021/05/08 02:00:17;;;;;;;30.33;16.48;;;;;;;3.45;81.24;101625.94;5099946;28;20028;-67
2021/05/08 02:02:43;;;;;;;30.98;16.63;;;;;;;3.46;81.42;101635.59;5098346;28;20028;-67
2021/05/08 02:05:08;;;;;;;29.20;16.15;;;;;;;3.55;81.19;101633.38;5104452;28;20035;-67
2021/05/08 02:07:35;;;;;;;30.08;16.40;;;;;;;3.68;81.58;101621.75;5105546;28;20061;-67
2021/05/08 02:10:01;;;;;;;30.33;16.30;;;;;;;3.71;80.86;101621.91;5103726;28;20964;-67
2021/05/08 02:12:33;;;;;;;28.63;16.17;;;;;;;3.80;79.67;101619.72;5107638;28;20111;-65
2021/05/08 02:14:58;;;;;;;28.52;15.30;;;;;;;3.90;79.18;101614.88;5104066;28;20034;-66
2021/05/08 02:17:24;;;;;;;28.52;15.30;;;;;;;3.93;79.42;101618.53;5104364;28;20099;-66
2021/05/08 02:19:50;;;;;;;30.05;15.93;;;;;;;3.92;79.60;101610.63;5103311;28;20093;-66
2021/05/08 02:22:18;;;;;;;29.20;16.33;;;;;;;3.79;80.64;101604.84;5101666;28;20032;-66
2021/05/08 02:24:44;;;;;;;28.83;14.95;;;;;;;3.69;79.07;101604.38;5105210;28;20028;-66
2021/05/08 02:27:09;;;;;;;29.70;15.95;;;;;;;3.62;79.02;101600.56;5099629;28;20492;-66
2021/05/08 02:29:34;;;;;;;29.60;15.48;;;;;;;3.58;78.50;101598.66;5106103;28;20493;-66
2021/05/08 02:32:00;;;;;;;30.00;15.05;;;;;;;3.51;78.89;101596.56;5100427;28;20036;-66
2021/05/08 02:34:25;;;;;;;27.83;14.95;;;;;;;3.46;77.66;101593.75;5103061;28;20036;-66
2021/05/08 02:36:51;;;;;;;27.77;15.27;;;;;;;3.41;78.82;101585.72;5102055;28;20179;-66
2021/05/08 02:39:16;;;;;;;27.30;14.82;;;;;;;3.36;78.50;101584.59;5100527;28;20074;-66
2021/05/08 02:41:42;;;;;;;28.30;15.00;;;;;;;3.36;79.28;101587.22;5100817;28;20035;-65
2021/05/08 02:44:07;;;;;;;29.58;15.20;;;;;;;3.23;79.68;101583.16;5100376;28;20024;-66
2021/05/08 02:46:32;;;;;;;28.17;15.45;;;;;;;3.15;80.53;101576.69;5098856;28;20383;-66
2021/05/08 02:48:57;;;;;;;29.08;15.85;;;;;;;3.12;79.36;101571.31;5100133;28;20060;-66
2021/05/08 02:51:23;;;;;;;29.73;15.93;;;;;;;3.09;78.62;101568.56;5101516;28;20383;-66
2021/05/08 02:53:48;;;;;;;27.65;14.63;;;;;;;3.13;77.51;101567.84;5099621;28;20469;-66
2021/05/08 02:56:13;;;;;;;30.05;15.70;;;;;;;3.10;78.68;101568.63;5101900;28;20035;-66
2021/05/08 02:58:39;;;;;;;29.10;15.20;;;;;;;3.10;78.34;101572.94;5100529;28;20051;-66
2021/05/08 03:01:04;;;;;;;28.67;15.80;;;;;;;3.11;78.42;101565.19;5097817;28;20108;-66
2021/05/08 03:03:29;;;;;;;28.45;15.77;;;;;;;3.10;78.32;101562.50;5098362;28;20032;-67
2021/05/08 03:05:55;;;;;;;30.20;15.70;;;;;;;3.09;78.65;101556.38;5101830;28;20020;-67
2021/05/08 03:08:20;;;;;;;28.58;15.52;;;;;;;3.11;78.52;101541.66;5098909;28;20402;-66
2021/05/08 03:10:46;;;;;;;29.17;15.75;;;;;;;3.11;77.52;101540.78;5098312;28;20031;-66
2021/05/08 03:13:12;;;;;;;30.33;15.95;;;;;;;3.17;76.94;101538.44;5097589;28;20463;-65
2021/05/08 03:15:37;;;;;;;30.58;16.45;;;;;;;3.17;76.70;101541.06;5101037;28;20043;-65
2021/05/08 03:18:03;;;;;;;29.85;16.30;;;;;;;3.15;77.90;101540.09;5100732;28;20032;-66
2021/05/08 03:20:29;;;;;;;29.98;16.02;;;;;;;3.11;78.49;101541.66;5101601;28;20032;-65
2021/05/08 03:22:54;;;;;;;30.13;16.48;;;;;;;3.04;79.02;101542.19;5099205;28;20377;-65
2021/05/08 03:25:19;;;;;;;30.17;16.88;;;;;;;3.15;78.84;101540.09;5101819;28;20110;-66
2021/05/08 03:27:44;;;;;;;31.58;16.77;;;;;;;3.23;77.67;101536.13;5100007;28;20474;-67
2021/05/08 03:30:10;;;;;;;29.15;16.38;;;;;;;3.31;77.20;101545.19;5103178;28;20493;-67
2021/05/08 03:32:35;;;;;;;29.60;15.88;;;;;;;3.48;76.94;101535.50;5102100;28;20032;-67
2021/05/08 03:35:01;;;;;;;30.73;16.25;;;;;;;3.57;77.20;101534.09;5100155;28;20051;-67
2021/05/08 03:37:26;;;;;;;29.63;16.85;;;;;;;3.60;76.96;101524.69;5103417;28;20036;-67
2021/05/08 03:39:51;;;;;;;29.77;16.55;;;;;;;3.66;77.38;101529.28;5100949;28;20097;-66
2021/05/08 03:42:17;;;;;;;31.50;16.77;;;;;;;3.70;76.94;101523.38;5102960;28;20107;-65
2021/05/08 03:44:42;;;;;;;31.50;16.30;;;;;;;3.73;76.96;101526.09;5103523;28;20024;-67
2021/05/08 03:47:09;;;;;;;30.70;17.15;;;;;;;3.68;77.36;101522.38;5105663;28;20099;-67
2021/05/08 03:49:35;;;;;;;31.95;18.35;;;;;;;3.61;78.43;101515.09;5104574;28;20131;-67
2021/05/08 03:52:04;;;;;;;31.83;18.60;;;;;;;3.53;78.79;101509.56;5098391;28;22120;-67
2021/05/08 03:54:30;;;;;;;31.92;20.42;;;;;;;3.47;78.46;101515.41;5102292;28;20076;-67
2021/05/08 03:56:57;;;;;;;33.50;20.90;;;;;;;3.43;78.49;101510.84;5103954;28;20408;-67
2021/05/08 03:59:22;;;;;;;34.38;20.92;;;;;;;3.40;78.76;101515.97;5103955;28;20024;-67
2021/05/08 04:01:47;;;;;;;32.58;20.83;;;;;;;3.31;78.75;101507.72;5102286;28;20054;-64
2021/05/08 04:04:13;;;;;;;33.13;20.58;;;;;;;3.31;77.78;101511.22;5100914;28;20055;-64
2021/05/08 04:06:38;;;;;;;32.78;20.60;;;;;;;3.36;78.35;101507.91;5101701;28;20024;-64
2021/05/08 04:09:07;;;;;;;36.63;20.30;;;;;;;3.37;77.82;101514.94;5100710;28;20023;-64
2021/05/08 04:11:32;;;;;;;32.45;20.50;;;;;;;3.41;77.84;101506.41;5100704;28;20048;-64
2021/05/08 04:13:57;;;;;;;32.05;20.85;;;;;;;3.44;77.94;101503.94;5103147;28;20182;-64
2021/05/08 04:16:23;;;;;;;31.48;20.50;;;;;;;3.48;77.95;101495.38;5097215;28;20052;-64
2021/05/08 04:18:48;;;;;;;31.80;19.42;;;;;;;3.55;77.32;101505.28;5102505;28;20454;-64
2021/05/08 04:21:13;;;;;;;32.90;20.65;;;;;;;3.69;77.64;101499.78;5096736;28;20537;-64
2021/05/08 04:23:39;;;;;;;33.20;20.60;;;;;;;3.82;77.17;101502.94;5099124;28;20059;-64
2021/05/08 04:26:04;;;;;;;32.50;19.98;;;;;;;3.91;76.64;101499.81;5098687;28;20425;-64
2021/05/08 04:28:29;;;;;;;33.90;20.52;;;;;;;4.04;76.25;101496.00;5096774;28;20051;-64
2021/05/08 04:30:55;;;;;;;32.50;19.80;;;;;;;4.11;76.17;101498.03;5099636;28;20359;-64
2021/05/08 04:33:20;;;;;;;33.38;21.00;;;;;;;4.19;75.66;101491.41;5095841;28;20027;-64
2021/05/08 04:35:46;;;;;;;32.75;20.77;;;;;;;4.32;75.42;101492.78;5098549;28;20119;-64
2021/05/08 04:38:11;;;;;;;34.10;20.80;;;;;;;4.39;74.21;101487.81;5098442;28;20028;-64
2021/05/08 04:40:36;;;;;;;32.80;20.75;;;;;;;4.42;73.67;101483.56;5097047;28;20036;-64
2021/05/08 04:43:02;;;;;;;34.38;21.70;;;;;;;4.52;74.37;101485.72;5096970;28;20550;-64
2021/05/08 04:45:27;;;;;;;33.22;20.73;;;;;;;4.58;73.17;101484.19;5098266;28;20434;-64
2021/05/08 04:47:57;;;;;;;34.55;20.90;;;;;;;4.62;74.29;101486.09;5097914;28;20028;-65
2021/05/08 04:50:23;;;;;;;33.60;19.92;;;;;;;4.66;74.02;101480.13;5096255;28;20020;-64
2021/05/08 04:52:49;;;;;;;34.63;19.20;;;;;;;4.75;73.67;101480.50;5098639;28;20446;-64
2021/05/08 04:55:14;;;;;;;33.78;19.35;;;;;;;4.80;73.46;101470.19;5093571;28;20099;-64
2021/05/08 04:57:39;;;;;;;31.73;18.75;;;;;;;4.85;73.45;101459.03;5096612;28;20379;-65
2021/05/08 05:00:05;;;;;;;31.25;18.45;;;;;;;4.91;71.27;101466.25;5098488;28;20459;-64
2021/05/08 05:02:30;;;;;;;32.60;18.95;;;;;;;4.98;69.61;101469.97;5099879;28;20042;-64
2021/05/08 05:04:56;;;;;;;32.65;18.67;;;;;;;5.06;68.77;101465.91;5097532;28;20032;-64
2021/05/08 05:07:21;;;;;;;34.10;19.10;;;;;;;5.11;70.28;101464.38;5099140;28;20015;-64
2021/05/08 05:09:46;;;;;;;35.00;19.45;;;;;;;5.18;68.11;101470.72;5097694;28;20060;-65
2021/05/08 05:12:12;;;;;;;33.38;18.98;;;;;;;5.27;67.54;101462.28;5097606;28;20032;-64
2021/05/08 05:14:37;;;;;;;33.45;18.58;;;;;;;5.32;67.27;101463.34;5100295;28;20074;-64
2021/05/08 05:17:02;;;;;;;33.00;19.02;;;;;;;5.35;67.88;101461.72;5099360;28;20373;-64
2021/05/08 05:19:27;;;;;;;34.38;18.90;;;;;;;5.38;66.59;101460.94;5099266;28;20024;-65
2021/05/08 05:21:53;;;;;;;33.45;18.02;;;;;;;5.43;67.60;101463.72;5101446;28;20030;-64
2021/05/08 05:24:18;;;;;;;33.88;18.08;;;;;;;5.49;66.62;101467.47;5100571;28;20060;-64
2021/05/08 05:26:43;;;;;;;34.03;18.38;;;;;;;5.56;66.25;101458.97;5103196;28;20031;-64
2021/05/08 05:29:12;;;;;;;33.42;18.73;;;;;;;5.66;65.96;101467.16;5101808;28;20424;-65
2021/05/08 05:31:38;;;;;;;33.08;16.88;;;;;;;5.78;65.01;101462.31;5104605;28;20131;-64
2021/05/08 05:34:04;;;;;;;33.80;17.95;;;;;;;5.88;63.62;101467.06;5102763;28;20071;-64
2021/05/08 05:36:31;;;;;;;32.40;17.33;;;;;;;5.97;63.65;101470.81;5101430;28;20028;-64
2021/05/08 05:38:57;;;;;;;33.70;17.85;;;;;;;6.04;63.06;101478.06;5098295;28;20258;-65
2021/05/08 05:41:22;;;;;;;33.22;18.00;;;;;;;6.18;62.54;101474.16;5102018;28;20030;-64
2021/05/08 05:43:47;;;;;;;33.58;17.63;;;;;;;6.32;62.46;101476.34;5099711;28;20027;-65
2021/05/08 05:46:13;;;;;;;32.63;18.05;;;;;;;6.42;62.14;101473.16;5100748;28;20050;-64
2021/05/08 05:48:38;;;;;;;32.03;17.67;;;;;;;6.56;61.87;101476.22;5098519;28;20032;-64
2021/05/08 05:51:04;;;;;;;35.00;18.15;;;;;;;6.74;61.34;101475.88;5103295;28;20020;-65
2021/05/08 05:53:29;;;;;;;32.00;17.02;;;;;;;6.89;60.27;101486.00;5099007;28;20478;-65
2021/05/08 05:55:55;;;;;;;31.55;16.90;;;;;;;6.99;59.60;101488.03;5099763;28;20467;-64
2021/05/08 05:58:20;;;;;;;31.40;16.27;;;;;;;7.08;59.43;101483.03;5102490;28;20452;-65
2021/05/08 06:00:45;;;;;;;29.83;15.68;;;;;;;7.15;58.97;101474.47;5095350;28;20027;-64
2021/05/08 06:03:11;;;;;;;30.90;15.38;;;;;;;7.21;58.12;101479.03;5095387;28;20028;-66
2021/05/08 06:05:36;;;;;;;30.48;14.77;;;;;;;7.32;57.51;101474.97;5100137;28;20478;-65
2021/05/08 06:08:01;;;;;;;28.38;14.23;;;;;;;7.41;57.88;101470.78;5098241;28;20023;-65
2021/05/08 06:10:27;;;;;;;28.88;14.38;;;;;;;7.56;57.21;101472.94;5098943;28;20478;-65
2021/05/08 06:12:52;;;;;;;29.65;14.07;;;;;;;7.72;56.38;101467.25;5098827;28;20027;-65
2021/05/08 06:15:17;;;;;;;29.80;14.23;;;;;;;7.92;56.50;101466.84;5096902;28;20090;-65
2021/05/08 06:17:43;;;;;;;28.30;14.27;;;;;;;8.00;57.11;101470.56;5099281;28;20077;-65
2021/05/08 06:20:09;;;;;;;27.58;13.30;;;;;;;8.07;55.75;101463.69;5100554;28;20031;-65
2021/05/08 06:22:34;;;;;;;28.42;13.23;;;;;;;8.01;54.91;101454.81;5102588;28;20048;-64
2021/05/08 06:24:59;;;;;;;28.73;12.75;;;;;;;8.03;55.00;101458.34;5096519;28;20020;-66
2021/05/08 06:27:25;;;;;;;26.60;12.73;;;;;;;8.03;54.79;101460.97;5100728;28;20026;-65
2021/05/08 06:29:50;;;;;;;27.17;12.38;;;;;;;8.08;54.66;101454.94;5098351;28;20020;-64
2021/05/08 06:32:16;;;;;;;25.88;12.10;;;;;;;8.10;54.14;101450.63;5100620;28;20024;-65
2021/05/08 06:34:41;;;;;;;25.88;11.80;;;;;;;8.16;53.66;101449.00;5101794;28;20036;-65
2021/05/08 06:37:07;;;;;;;27.75;12.55;;;;;;;8.19;54.22;101448.19;5099860;28;20016;-65
2021/05/08 06:39:32;;;;;;;28.13;11.90;;;;;;;8.18;53.29;101433.25;5100376;28;20035;-65
2021/05/08 06:41:58;;;;;;;26.35;12.38;;;;;;;8.17;54.14;101444.66;5098749;28;20031;-65
2021/05/08 06:44:25;;;;;;;28.33;13.18;;;;;;;8.17;54.59;101436.75;5098589;28;20432;-65
2021/05/08 06:46:56;;;;;;;28.55;13.38;;;;;;;8.22;54.89;101432.47;5098233;28;20474;-66
2021/05/08 06:49:22;;;;;;;28.33;13.30;;;;;;;8.24;54.70;101440.41;5099598;28;20112;-66
2021/05/08 06:51:47;;;;;;;28.05;12.73;;;;;;;8.24;55.95;101430.75;5101331;28;20031;-65
2021/05/08 06:54:13;;;;;;;28.27;13.70;;;;;;;8.30;55.90;101441.44;5101565;28;20050;-67
2021/05/08 06:56:38;;;;;;;28.73;15.02;;;;;;;8.35;55.28;101434.53;5099829;28;20028;-66
2021/05/08 06:59:04;;;;;;;27.17;13.07;;;;;;;8.48;55.23;101437.50;5102271;28;20043;-65
2021/05/08 07:01:29;;;;;;;27.42;13.00;;;;;;;8.53;55.24;101434.09;5099694;28;20023;-66
2021/05/08 07:03:56;;;;;;;26.25;12.63;;;;;;;8.61;54.91;101423.72;5103424;28;20028;-65
2021/05/08 07:06:23;;;;;;;26.90;12.32;;;;;;;8.61;54.29;101421.09;5104084;28;20076;-65
2021/05/08 07:08:49;;;;;;;26.83;12.23;;;;;;;8.60;54.25;101418.41;5104838;28;20020;-64
2021/05/08 07:11:14;;;;;;;27.33;12.45;;;;;;;8.67;55.21;101425.59;5102697;28;20032;-65
2021/05/08 07:13:39;;;;;;;28.42;12.25;;;;;;;8.71;53.43;101423.06;5106382;27;20144;-64
2021/05/08 07:16:05;;;;;;;26.83;12.32;;;;;;;8.85;54.19;101417.19;5104111;28;20031;-64
2021/05/08 07:18:30;;;;;;;26.95;12.00;;;;;;;8.96;54.85;101412.13;5097156;28;20027;-64
2021/05/08 07:20:56;;;;;;;28.75;12.88;;;;;;;9.11;55.11;101416.81;5101686;28;20020;-65
2021/05/08 07:23:21;;;;;;;26.50;11.88;;;;;;;9.22;52.99;101412.66;5098530;28;20459;-64
2021/05/08 07:25:46;;;;;;;25.42;11.40;;;;;;;9.38;53.55;101412.06;5103192;28;20466;-64
2021/05/08 07:28:14;;;;;;;26.60;11.85;;;;;;;9.35;52.80;101403.19;5101440;28;20107;-64
2021/05/08 07:30:42;;;;;;;26.15;11.70;;;;;;;9.36;53.20;101407.59;5101336;28;20555;-65
2021/05/08 07:33:09;;;;;;;26.67;12.00;;;;;;;9.46;52.69;101408.66;5097094;28;20031;-64
2021/05/08 07:35:34;;;;;;;24.95;11.20;;;;;;;9.60;52.75;101405.41;5097787;27;20604;-64
2021/05/08 07:37:59;;;;;;;28.25;12.15;;;;;;;9.67;53.14;101395.84;5098766;28;20108;-64
2021/05/08 07:40:25;;;;;;;24.60;10.88;;;;;;;9.68;53.16;101404.66;5100755;28;20031;-64
2021/05/08 07:42:51;;;;;;;25.60;11.18;;;;;;;9.74;51.63;101395.09;5099663;28;20028;-64
2021/05/08 07:45:16;;;;;;;26.42;10.88;;;;;;;9.85;51.78;101397.03;5100201;28;20031;-64
2021/05/08 07:47:42;;;;;;;24.58;10.45;;;;;;;9.95;51.19;101388.38;5099444;28;20032;-64
2021/05/08 07:50:08;;;;;;;25.40;10.40;;;;;;;10.15;51.10;101390.41;5097606;28;20020;-64
2021/05/08 07:52:34;;;;;;;24.67;10.27;;;;;;;10.23;49.66;101388.78;5102041;28;20075;-64
2021/05/08 07:55:00;;;;;;;25.60;11.10;;;;;;;10.37;51.44;101392.56;5104921;28;20054;-67
2021/05/08 07:57:25;;;;;;;24.55;10.10;;;;;;;10.53;49.67;101390.09;5104622;28;20035;-67
2021/05/08 07:59:50;;;;;;;24.42;10.00;;;;;;;10.64;50.15;101370.88;5105064;28;20032;-66
2021/05/08 08:02:16;;;;;;;24.38;10.27;;;;;;;10.68;49.94;101363.88;5100116;28;20423;-67
2021/05/08 08:04:41;;;;;;;25.63;10.43;;;;;;;10.65;49.92;101353.25;5105102;28;20425;-67
2021/05/08 08:07:06;;;;;;;24.60;9.98;;;;;;;10.66;49.19;101352.41;5102299;28;20031;-67
2021/05/08 08:09:32;;;;;;;24.17;9.80;;;;;;;10.59;49.61;101343.50;5104306;28;20383;-67
2021/05/08 08:11:57;;;;;;;24.80;10.10;;;;;;;10.54;49.83;101346.94;5101034;28;20039;-67
2021/05/08 08:14:22;;;;;;;24.55;10.45;;;;;;;10.69;49.30;101341.84;5095357;28;20020;-66
2021/05/08 08:16:48;;;;;;;27.25;10.27;;;;;;;10.90;48.66;101349.13;5095062;28;20554;-67
2021/05/08 08:19:13;;;;;;;23.70;10.23;;;;;;;11.14;47.46;101351.16;5098193;28;20042;-66
2021/05/08 08:21:38;;;;;;;24.98;10.90;;;;;;;11.28;48.62;101350.41;5101129;28;20152;-67
2021/05/08 08:24:04;;;;;;;27.00;11.02;;;;;;;11.48;48.57;101346.16;5098479;28;20090;-66
2021/05/08 08:26:29;;;;;;;24.88;9.88;;;;;;;11.58;46.99;101355.09;5100109;28;20076;-67
2021/05/08 08:28:55;;;;;;;24.67;10.02;;;;;;;11.72;47.17;101352.53;5096569;28;20024;-67
2021/05/08 08:31:20;;;;;;;24.75;9.88;;;;;;;11.82;47.19;101351.75;5099557;28;20028;-67
2021/05/08 08:33:45;;;;;;;26.60;9.90;;;;;;;11.97;46.64;101336.84;5097525;28;20027;-66
2021/05/08 08:36:11;;;;;;;24.52;9.98;;;;;;;12.19;46.25;101340.53;5099985;28;20127;-67
2021/05/08 08:38:36;;;;;;;24.15;9.93;;;;;;;12.58;44.75;101332.75;5097765;28;20044;-67
2021/05/08 08:41:02;;;;;;;24.75;10.02;;;;;;;12.93;44.51;101335.53;5099609;28;20026;-67
2021/05/08 08:43:27;;;;;;;24.10;8.93;;;;;;;13.16;43.53;101327.56;5095439;28;20067;-67
2021/05/08 08:45:52;;;;;;;24.25;9.10;;;;;;;13.22;43.55;101329.34;5099718;28;20046;-67
2021/05/08 08:48:20;;;;;;;24.45;8.15;;;;;;;13.06;42.97;101329.34;5099529;28;20081;-67
2021/05/08 08:50:48;;;;;;;23.38;8.15;;;;;;;12.99;43.02;101331.97;5100095;28;20103;-67
2021/05/08 08:53:15;;;;;;;23.48;7.78;;;;;;;12.97;41.95;101321.34;5096891;28;20032;-67
2021/05/08 08:55:49;;;;;;;21.73;7.30;;;;;;;12.92;40.96;101320.47;5103006;28;20024;-66
2021/05/08 08:58:16;;;;;;;23.90;8.07;;;;;;;12.91;41.53;101310.75;5098548;28;20053;-67
2021/05/08 09:00:41;;;;;;;22.45;6.80;;;;;;;12.98;41.47;101303.69;5105321;28;20055;-67
2021/05/08 09:03:06;;;;;;;22.83;7.40;;;;;;;13.13;41.26;101303.69;5102625;28;20074;-66
2021/05/08 09:05:32;;;;;;;22.27;7.28;;;;;;;13.23;41.69;101296.63;5101302;28;20074;-67
2021/05/08 09:08:01;;;;;;;22.35;7.38;;;;;;;13.27;42.11;101302.84;5101322;28;20024;-66
2021/05/08 09:10:32;;;;;;;22.98;7.63;;;;;;;13.34;42.20;101288.66;5100717;28;20024;-67
2021/05/08 09:12:59;;;;;;;25.13;7.35;;;;;;;13.45;40.77;101281.59;5091720;28;20035;-67
2021/05/08 09:15:33;;;;;;;21.70;7.57;;;;;;;13.47;40.69;101274.53;5097769;28;20485;-66
2021/05/08 09:18:00;;;;;;;21.73;7.10;;;;;;;13.44;39.90;101279.88;5099671;28;20065;-66
2021/05/08 09:20:40;;;;;;;21.75;6.75;;;;;;;13.44;41.55;101274.56;5097112;28;20071;-67
2021/05/08 09:23:15;;;;;;;21.98;6.70;;;;;;;13.36;41.20;101273.66;5100073;28;20444;-67
2021/05/08 09:26:14;;;;;;;22.17;7.00;;;;;;;13.38;41.73;101279.84;5096362;28;20028;-66
2021/05/08 09:28:41;;;;;;;21.63;6.57;;;;;;;13.35;40.18;101263.91;5094173;28;20032;-67
2021/05/08 09:31:13;;;;;;;21.95;6.75;;;;;;;13.19;41.28;101274.53;5093353;28;20107;-66
2021/05/08 09:33:38;;;;;;;20.98;6.53;;;;;;;13.26;40.88;101288.66;5090877;28;20032;-67
2021/05/08 09:36:10;;;;;;;22.48;6.20;;;;;;;13.39;41.03;101293.13;5089691;28;20040;-68
2021/05/08 09:38:38;;;;;;;19.50;5.90;;;;;;;13.30;40.04;101285.13;5092818;28;20028;-68
2021/05/08 09:41:05;;;;;;;19.92;6.30;;;;;;;13.16;41.76;101290.41;5093147;28;20047;-67
2021/05/08 09:43:31;;;;;;;20.38;6.50;;;;;;;13.02;42.76;101277.16;5094317;28;20517;-66
2021/05/08 09:45:57;;;;;;;20.20;6.45;;;;;;;12.93;43.79;101277.16;5099220;28;20056;-66
2021/05/08 09:48:35;;;;;;;20.92;6.40;;;;;;;12.96;44.36;101276.25;5095962;28;20012;-66
2021/05/08 09:51:24;;;;;;;21.38;6.40;;;;;;;12.90;43.94;101272.72;5095716;28;20020;-65
2021/05/08 09:54:02;;;;;;;19.10;5.93;;;;;;;13.12;44.51;101272.75;5101960;28;20042;-67
2021/05/08 09:56:45;;;;;;;21.60;6.15;;;;;;;13.11;44.11;101288.66;5100278;28;20483;-66
2021/05/08 09:59:22;;;;;;;;;;;;;;;12.81;45.18;101270.03;5101359;28;20030;-64
2021/05/08 10:02:04;;;;;;;19.48;5.50;;;;;;;12.35;47.95;101261.97;5103332;28;19912;-66
2021/05/08 10:04:37;;;;;;;19.05;5.30;;;;;;;12.32;47.68;101267.22;5104269;28;20355;-66
2021/05/08 10:07:09;;;;;;;;;;;;;;;12.42;47.68;101269.06;5100971;28;20017;-66
2021/05/08 10:09:36;;;;;;;19.17;6.00;;;;;;;12.40;48.47;101257.56;5102942;28;19934;-65
2021/05/08 10:12:04;;;;;;;19.77;5.75;;;;;;;12.07;49.96;101263.59;5100781;28;20153;-66
2021/05/08 10:14:34;;;;;;;19.77;5.50;;;;;;;11.76;53.77;101266.06;5102226;28;20055;-65
2021/05/08 10:17:00;;;;;;;18.98;5.00;;;;;;;11.55;54.56;101261.47;5102076;28;20478;-65
2021/05/08 10:19:29;;;;;;;18.45;5.32;;;;;;;11.16;57.66;101264.72;5103557;28;20030;-66
2021/05/08 10:21:56;;;;;;;20.05;5.47;;;;;;;10.74;58.24;101257.28;5102560;28;20031;-66
2021/05/08 10:24:23;;;;;;;18.65;5.57;;;;;;;10.53;61.88;101268.50;5105803;28;20383;-66
2021/05/08 10:26:50;;;;;;;19.02;5.70;;;;;;;10.42;61.44;101256.03;5092353;28;20024;-67
2021/05/08 10:29:17;;;;;;;18.95;6.20;;;;;;;10.32;64.41;101245.34;5102580;28;20024;-66
2021/05/08 10:31:43;;;;;;;21.40;6.00;;;;;;;10.39;64.16;101242.81;5107211;28;20413;-66
2021/05/08 10:34:08;;;;;;;19.00;5.88;;;;;;;10.35;63.24;101235.69;5103221;28;20024;-67
2021/05/08 10:36:46;;;;;;;18.83;5.50;;;;;;;10.39;62.43;101224.31;5104881;28;20044;-67
2021/05/08 10:39:12;;;;;;;17.65;5.20;;;;;;;10.46;62.42;101244.66;5097659;28;20032;-64
2021/05/08 10:41:53;;;;;;;19.45;5.43;;;;;;;10.53;62.72;101240.31;5100737;28;20026;-66
2021/05/08 10:44:44;;;;;;;19.45;6.18;;;;;;;10.29;67.13;101225.03;5101151;28;20024;-65
2021/05/08 10:47:09;;;;;;;19.85;6.03;;;;;;;10.28;68.97;101217.97;5101201;28;20081;-65
2021/05/08 10:49:34;;;;;;;20.50;6.60;;;;;;;10.30;69.93;101214.47;5099961;28;20460;-65
2021/05/08 10:52:02;;;;;;;20.38;6.60;;;;;;;10.20;71.28;101198.53;5100659;28;20048;-64
2021/05/08 10:54:37;;;;;;;20.88;5.93;;;;;;;9.96;65.36;101192.09;5099489;28;20028;-64
2021/05/08 10:57:29;;;;;;;21.48;6.65;;;;;;;9.98;66.67;101187.69;5099249;28;20024;-64
2021/05/08 11:00:04;;;;;;;20.65;6.65;;;;;;;9.89;69.47;101183.19;5099173;28;20020;-64
2021/05/08 11:02:42;;;;;;;19.00;6.20;;;;;;;9.92;71.37;101171.78;5098414;28;20040;-64
2021/05/08 11:05:24;;;;;;;19.23;5.60;;;;;;;9.99;65.88;101168.34;5097987;28;20035;-64
2021/05/08 11:07:49;;;;;;;19.52;5.65;;;;;;;10.00;67.59;101175.38;5098312;28;20031;-64
2021/05/08 11:10:33;;;;;;;19.20;5.75;;;;;;;9.98;66.02;101156.00;5098986;28;20051;-64
2021/05/08 11:13:25;;;;;;;18.92;5.85;;;;;;;9.90;67.97;101152.38;5099287;28;20028;-64
2021/05/08 11:15:51;;;;;;;20.73;6.10;;;;;;;9.95;68.87;101150.69;5097708;28;20036;-64